createdAt,value
2022-11-23T00:01:20.351Z,0.77
2022-11-23T00:03:48.999Z,1.13
2022-11-23T00:06:16.823Z,1.00
2022-11-23T00:08:43.964Z,0.97
2022-11-23T00:11:11.467Z,0.90
2022-11-23T00:13:40.693Z,1.83
2022-11-23T00:16:16.840Z,1.00
2022-11-23T00:18:44.436Z,0.80
2022-11-23T00:21:13.952Z,0.63
2022-11-23T00:23:40.806Z,1.10
2022-11-23T00:26:07.547Z,1.10
2022-11-23T00:28:38.820Z,1.50
2022-11-23T00:31:13.767Z,1.60
2022-11-23T00:33:40.821Z,0.80
2022-11-23T00:36:14.917Z,0.53
2022-11-23T00:38:43.475Z,0.87
2022-11-23T00:41:15.355Z,1.63
2022-11-23T00:43:42.700Z,0.93
2022-11-23T00:46:16.777Z,1.00
2022-11-23T00:48:44.476Z,1.00
2022-11-23T00:51:13.860Z,1.10
2022-11-23T00:53:40.717Z,0.90
2022-11-23T00:56:07.746Z,1.10
2022-11-23T00:58:35.227Z,1.10
2022-11-23T01:01:03.704Z,1.33
2022-11-23T01:03:30.862Z,1.50
2022-11-23T01:06:03.540Z,1.27
2022-11-23T01:08:30.578Z,0.97
2022-11-23T01:11:02.349Z,1.27
2022-11-23T01:13:29.782Z,1.10
2022-11-23T01:15:56.766Z,1.43
2022-11-23T01:18:23.958Z,1.00
2022-11-23T01:20:50.944Z,0.80
2022-11-23T01:23:17.642Z,0.87
2022-11-23T01:25:44.309Z,1.00
2022-11-23T01:28:11.043Z,1.20
2022-11-23T01:30:37.888Z,1.47
2022-11-23T01:33:05.484Z,0.90
2022-11-23T01:35:32.169Z,1.17
2022-11-23T01:37:58.822Z,0.87
2022-11-23T01:40:25.505Z,1.30
2022-11-23T01:43:00.062Z,1.53
2022-11-23T01:45:43.008Z,0.87
2022-11-23T01:48:15.281Z,1.00
2022-11-23T01:50:43.437Z,0.87
2022-11-23T01:53:10.389Z,1.20
2022-11-23T01:55:37.624Z,0.93
2022-11-23T01:58:06.823Z,1.20
2022-11-23T02:00:33.426Z,0.63
2022-11-23T02:03:01.517Z,0.90
2022-11-23T02:05:33.803Z,0.80
2022-11-23T02:08:01.592Z,0.63
2022-11-23T02:10:30.867Z,0.90
2022-11-23T02:13:02.158Z,0.93
2022-11-23T02:15:29.753Z,1.30
2022-11-23T02:17:58.683Z,0.70
2022-11-23T02:20:25.403Z,1.13
2022-11-23T02:23:20.760Z,1.10
2022-11-23T02:25:47.258Z,0.73
2022-11-23T02:28:24.798Z,0.70
2022-11-23T02:30:54.559Z,1.03
2022-11-23T02:33:21.194Z,0.57
2022-11-23T02:35:53.880Z,0.63
2022-11-23T02:42:07.444Z,1.10
2022-11-23T02:44:51.935Z,0.97
2022-11-23T02:47:18.506Z,1.17
2022-11-23T02:49:49.377Z,0.70
2022-11-23T02:52:17.079Z,1.13
2022-11-23T02:54:43.665Z,1.10
2022-11-23T02:57:10.135Z,0.63
2022-11-23T02:59:36.788Z,0.90
2022-11-23T03:02:05.086Z,0.90
2022-11-23T03:04:32.249Z,1.10
2022-11-23T03:06:59.279Z,1.03
2022-11-23T03:09:26.529Z,0.83
2022-11-23T03:11:53.721Z,0.87
2022-11-23T03:14:20.200Z,1.80
2022-11-23T03:16:46.797Z,1.27
2022-11-23T03:19:13.324Z,1.53
2022-11-23T03:21:39.890Z,0.90
2022-11-23T03:24:06.663Z,1.03
2022-11-23T03:26:33.211Z,1.20
2022-11-23T03:28:59.797Z,1.77
2022-11-23T03:31:26.626Z,1.47
2022-11-23T03:33:53.177Z,1.07
2022-11-23T03:36:19.843Z,0.77
2022-11-23T03:38:46.338Z,0.83
2022-11-23T03:41:12.931Z,0.87
2022-11-23T03:43:39.501Z,0.60
2022-11-23T03:46:06.058Z,2.63
2022-11-23T03:48:32.597Z,0.67
2022-11-23T03:50:59.240Z,0.80
2022-11-23T03:53:25.883Z,0.60
2022-11-23T03:55:54.965Z,0.60
2022-11-23T03:58:21.519Z,0.77
2022-11-23T04:00:48.132Z,0.83
2022-11-23T04:03:14.946Z,1.30
2022-11-23T04:05:41.488Z,1.60
2022-11-23T04:08:09.174Z,1.40
2022-11-23T04:10:35.748Z,0.70
2022-11-23T04:13:02.779Z,0.80
2022-11-23T04:15:29.305Z,1.07
2022-11-23T04:17:56.015Z,0.73
2022-11-23T04:20:22.579Z,0.60
2022-11-23T04:22:49.215Z,1.10
2022-11-23T04:25:15.778Z,1.70
2022-11-23T04:27:42.474Z,1.00
2022-11-23T04:30:09.815Z,1.10
2022-11-23T04:32:36.371Z,0.70
2022-11-23T04:35:03.135Z,1.57
2022-11-23T04:37:29.692Z,0.50
2022-11-23T04:39:56.324Z,0.93
2022-11-23T04:42:22.896Z,0.60
2022-11-23T04:44:49.420Z,1.93
2022-11-23T04:47:16.010Z,1.20
2022-11-23T04:49:42.602Z,0.63
2022-11-23T04:52:09.212Z,1.00
2022-11-23T04:54:35.735Z,0.30
2022-11-23T04:57:02.291Z,0.70
2022-11-23T04:59:29.190Z,0.40
2022-11-23T05:01:57.303Z,0.70
2022-11-23T05:04:24.259Z,0.80
2022-11-23T05:06:51.329Z,0.67
2022-11-23T05:09:18.244Z,0.90
2022-11-23T05:11:44.848Z,2.10
2022-11-23T05:14:11.421Z,1.00
2022-11-23T05:16:37.995Z,0.60
2022-11-23T05:19:04.515Z,0.83
2022-11-23T05:21:31.089Z,1.07
2022-11-23T05:23:57.662Z,0.90
2022-11-23T05:26:24.230Z,0.80
2022-11-23T05:28:50.814Z,0.67
2022-11-23T05:31:17.452Z,0.60
2022-11-23T05:33:43.948Z,0.87
2022-11-23T05:36:13.972Z,0.83
2022-11-23T05:38:41.455Z,1.00
2022-11-23T05:41:08.169Z,1.00
2022-11-23T05:43:35.068Z,0.80
2022-11-23T05:46:02.815Z,1.50
2022-11-23T05:48:29.351Z,2.10
2022-11-23T05:50:58.611Z,1.30
2022-11-23T05:53:29.048Z,1.20
2022-11-23T05:56:00.029Z,1.00
2022-11-23T05:58:26.690Z,0.97
2022-11-23T06:00:58.008Z,0.70
2022-11-23T06:03:25.323Z,1.33
2022-11-23T06:05:52.271Z,0.63
2022-11-23T06:08:18.948Z,1.43
2022-11-23T06:10:45.542Z,1.23
2022-11-23T06:13:12.102Z,1.10
2022-11-23T06:15:38.894Z,1.10
2022-11-23T06:18:05.568Z,0.77
2022-11-23T06:20:32.133Z,0.73
2022-11-23T06:22:58.715Z,1.13
2022-11-23T06:25:25.376Z,0.90
2022-11-23T06:28:00.364Z,1.50
2022-11-23T06:30:28.635Z,1.00
2022-11-23T06:32:55.863Z,1.00
2022-11-23T06:35:22.864Z,0.60
2022-11-23T06:37:50.945Z,0.70
2022-11-23T06:40:19.327Z,1.37
2022-11-23T06:42:46.064Z,0.77
2022-11-23T06:45:12.917Z,1.47
2022-11-23T06:47:39.587Z,0.80
2022-11-23T06:50:06.621Z,0.90
2022-11-23T06:52:33.269Z,0.80
2022-11-23T06:54:59.905Z,1.40
2022-11-23T06:57:26.485Z,1.73
2022-11-23T06:59:53.150Z,0.80
2022-11-23T07:02:19.850Z,1.57
2022-11-23T07:04:46.397Z,0.80
2022-11-23T07:07:13.019Z,0.67
2022-11-23T07:09:39.755Z,1.27
2022-11-23T07:12:06.614Z,0.90
2022-11-23T07:14:33.187Z,1.40
2022-11-23T07:16:59.675Z,2.37
2022-11-23T07:19:26.500Z,1.07
2022-11-23T07:21:53.060Z,0.60
2022-11-23T07:24:19.646Z,0.87
2022-11-23T07:26:46.214Z,1.20
2022-11-23T07:29:12.985Z,1.00
2022-11-23T07:31:39.488Z,1.00
2022-11-23T07:34:06.115Z,0.87
2022-11-23T07:36:33.355Z,0.60
2022-11-23T07:38:59.993Z,0.70
2022-11-23T07:41:27.762Z,1.20
2022-11-23T07:43:54.586Z,0.63
2022-11-23T07:46:21.573Z,1.37
2022-11-23T07:48:48.141Z,0.83
2022-11-23T07:51:16.387Z,1.63
2022-11-23T07:53:42.921Z,0.40
2022-11-23T07:56:09.607Z,1.00
2022-11-23T07:58:36.206Z,0.77
2022-11-23T08:01:02.994Z,0.87
2022-11-23T08:03:30.256Z,0.50
2022-11-23T08:05:57.235Z,0.83
2022-11-23T08:08:24.013Z,0.80
2022-11-23T08:10:53.803Z,0.90
2022-11-23T08:13:21.873Z,0.63
2022-11-23T08:15:53.974Z,1.77
2022-11-23T08:18:21.890Z,0.70
2022-11-23T08:20:48.575Z,0.97
2022-11-23T08:23:15.343Z,0.93
2022-11-23T08:25:41.963Z,1.10
2022-11-23T08:28:08.821Z,1.00
2022-11-23T08:30:36.311Z,0.93
2022-11-23T08:33:04.858Z,0.63
2022-11-23T08:35:34.307Z,0.50
2022-11-23T08:38:01.035Z,0.73
2022-11-23T08:40:29.879Z,1.03
2022-11-23T08:42:56.515Z,1.10
2022-11-23T08:45:23.226Z,0.73
2022-11-23T08:47:51.135Z,0.93
2022-11-23T08:50:18.309Z,0.60
2022-11-23T08:52:44.867Z,1.20
2022-11-23T08:55:11.848Z,0.83
2022-11-23T08:57:38.944Z,1.10
2022-11-23T09:00:06.424Z,0.83
2022-11-23T09:02:33.095Z,1.07
2022-11-23T09:05:00.873Z,1.73
2022-11-23T09:07:27.649Z,0.77
2022-11-23T09:09:54.295Z,0.60
2022-11-23T09:12:20.868Z,0.60
2022-11-23T09:14:47.469Z,0.70
2022-11-23T09:17:14.050Z,1.63
2022-11-23T09:19:40.645Z,0.60
2022-11-23T09:22:07.153Z,0.60
2022-11-23T09:24:34.360Z,0.97
2022-11-23T09:27:01.162Z,0.53
2022-11-23T09:29:28.566Z,0.73
2022-11-23T09:31:55.225Z,0.80
2022-11-23T09:34:21.925Z,1.13
2022-11-23T09:36:49.001Z,1.10
2022-11-23T09:39:15.655Z,1.00
2022-11-23T09:42:00.998Z,0.87
2022-11-23T09:44:36.606Z,1.10
2022-11-23T09:47:21.387Z,1.17
2022-11-23T09:50:06.194Z,0.80
2022-11-23T09:52:35.057Z,1.17
2022-11-23T09:55:11.296Z,1.37
2022-11-23T09:57:40.845Z,1.37
2022-11-23T10:00:21.914Z,0.70
2022-11-23T10:02:49.181Z,1.00
2022-11-23T10:05:22.630Z,0.70
2022-11-23T10:08:11.240Z,1.07
2022-11-23T10:11:03.282Z,0.50
2022-11-23T10:13:47.896Z,1.20
2022-11-23T10:16:37.363Z,0.70
2022-11-23T10:19:22.285Z,1.50
2022-11-23T10:22:03.744Z,0.90
2022-11-23T10:24:35.770Z,0.83
2022-11-23T10:27:03.348Z,0.83
2022-11-23T10:29:37.767Z,0.93
2022-11-23T10:32:15.817Z,0.80
2022-11-23T10:35:02.399Z,1.07
2022-11-23T10:37:29.237Z,0.80
2022-11-23T10:39:55.893Z,1.60
2022-11-23T10:42:29.059Z,0.70
2022-11-23T10:44:57.501Z,1.00
2022-11-23T10:48:00.345Z,0.80
2022-11-23T10:50:37.469Z,1.00
2022-11-23T10:53:08.405Z,0.80
2022-11-23T10:55:59.809Z,0.90
2022-11-23T10:58:31.879Z,1.27
2022-11-23T11:01:14.003Z,1.30
2022-11-23T11:03:40.802Z,1.30
2022-11-23T11:06:09.388Z,1.50
2022-11-23T11:09:00.465Z,0.87
2022-11-23T11:11:33.161Z,0.70
2022-11-23T11:14:24.755Z,0.70
2022-11-23T11:16:54.076Z,1.20
2022-11-23T11:19:28.094Z,0.80
2022-11-23T11:21:55.669Z,0.83
2022-11-23T11:24:31.892Z,1.00
2022-11-23T11:27:02.885Z,0.87
2022-11-23T11:29:32.695Z,1.03
2022-11-23T11:32:14.047Z,0.50
2022-11-23T11:34:52.392Z,1.27
2022-11-23T11:37:33.176Z,0.90
2022-11-23T11:40:08.439Z,0.70
2022-11-23T11:42:45.474Z,0.80
2022-11-23T11:45:21.153Z,0.50
2022-11-23T11:47:55.855Z,1.10
2022-11-23T11:50:31.874Z,1.20
2022-11-23T11:53:05.969Z,0.80
2022-11-23T11:55:48.811Z,0.80
2022-11-23T11:58:17.286Z,0.83
2022-11-23T12:01:01.056Z,1.20
2022-11-23T12:04:00.148Z,0.70
2022-11-23T12:06:38.177Z,1.80
2022-11-23T12:09:14.610Z,0.40
2022-11-23T12:11:41.790Z,0.40
2022-11-23T12:14:14.170Z,0.50
2022-11-23T12:17:31.959Z,0.90
2022-11-23T12:20:18.290Z,0.63
2022-11-23T12:23:04.180Z,0.97
2022-11-23T12:25:37.047Z,1.10
2022-11-23T12:28:11.257Z,1.00
2022-11-23T12:30:51.121Z,1.03
2022-11-23T12:33:23.717Z,0.50
2022-11-23T12:36:05.606Z,0.80
2022-11-23T12:38:44.157Z,0.80
2022-11-23T12:41:47.820Z,0.87
2022-11-23T12:44:39.757Z,1.07
2022-11-23T12:47:16.948Z,0.90
2022-11-23T12:49:52.055Z,0.67
2022-11-23T12:52:39.593Z,0.60
2022-11-23T12:55:33.612Z,0.80
2022-11-23T12:58:12.034Z,0.60
2022-11-23T13:00:46.008Z,0.80
2022-11-23T13:03:12.646Z,0.93
2022-11-23T13:06:17.754Z,1.30
2022-11-23T13:08:53.068Z,0.87
2022-11-23T13:11:36.956Z,0.87
2022-11-23T13:14:06.314Z,1.07
2022-11-23T13:16:46.844Z,1.83
2022-11-23T13:19:35.640Z,0.90
2022-11-23T13:22:05.643Z,1.37
2022-11-23T13:24:35.024Z,0.67
2022-11-23T13:27:14.227Z,1.47
2022-11-23T13:30:01.156Z,0.90
2022-11-23T13:32:39.937Z,0.60
2022-11-23T13:35:18.648Z,1.43
2022-11-23T13:38:14.456Z,0.63
2022-11-23T13:40:43.831Z,0.50
2022-11-23T13:43:19.386Z,0.63
2022-11-23T13:46:06.127Z,1.27
2022-11-23T13:48:56.207Z,0.80
2022-11-23T13:51:32.488Z,0.97
2022-11-23T13:54:19.066Z,0.80
2022-11-23T13:56:46.313Z,1.20
2022-11-23T13:59:25.048Z,1.83
2022-11-23T14:02:08.385Z,0.80
2022-11-23T14:04:47.056Z,0.60
2022-11-23T14:07:26.975Z,1.67
2022-11-23T14:10:09.623Z,0.70
2022-11-23T14:12:43.731Z,0.83
2022-11-23T14:15:26.385Z,0.83
2022-11-23T14:18:11.973Z,1.20
2022-11-23T14:20:44.293Z,1.10
2022-11-23T14:23:41.595Z,0.87
2022-11-23T14:26:35.790Z,0.60
2022-11-23T14:29:24.126Z,0.57
2022-11-23T14:32:28.654Z,1.33
2022-11-23T14:35:22.753Z,1.23
2022-11-23T14:38:07.715Z,0.60
2022-11-23T14:40:56.096Z,0.60
2022-11-23T14:43:22.879Z,0.63
2022-11-23T14:45:49.635Z,0.77
2022-11-23T14:48:34.372Z,1.20
2022-11-23T14:51:13.872Z,0.77
2022-11-23T14:53:49.046Z,1.70
2022-11-23T14:56:37.282Z,1.20
2022-11-23T14:59:22.768Z,0.97
2022-11-23T15:02:02.272Z,1.33
2022-11-23T15:04:36.346Z,1.10
2022-11-23T15:07:16.926Z,0.57
2022-11-23T15:10:08.982Z,0.80
2022-11-23T15:12:47.042Z,0.60
2022-11-23T15:15:19.668Z,0.80
2022-11-23T15:18:00.044Z,1.57
2022-11-23T15:20:30.402Z,1.30
2022-11-23T15:22:57.223Z,0.63
2022-11-23T15:25:24.244Z,0.87
2022-11-23T15:27:51.041Z,0.67
2022-11-23T15:30:27.197Z,1.40
2022-11-23T15:33:05.519Z,1.33
2022-11-23T15:35:35.397Z,0.97
2022-11-23T15:38:04.617Z,1.20
2022-11-23T15:40:35.611Z,1.60
2022-11-23T15:43:02.768Z,1.30
2022-11-23T15:45:41.478Z,0.40
2022-11-23T15:48:16.303Z,1.20
2022-11-23T15:50:54.039Z,0.70
2022-11-23T15:53:30.033Z,0.80
2022-11-23T15:56:03.385Z,0.60
2022-11-23T15:58:31.092Z,1.47
2022-11-23T16:01:13.993Z,0.90
2022-11-23T16:03:52.499Z,0.90
2022-11-23T16:06:24.897Z,0.90
2022-11-23T16:08:51.840Z,1.23
2022-11-23T16:11:29.156Z,1.03
2022-11-23T16:14:18.377Z,1.27
2022-11-23T16:16:48.303Z,1.40
2022-11-23T16:19:30.580Z,2.13
2022-11-23T16:22:03.108Z,1.20
2022-11-23T16:24:32.519Z,1.60
2022-11-23T16:26:59.895Z,1.43
2022-11-23T16:29:33.872Z,0.87
2022-11-23T16:32:03.418Z,1.10
2022-11-23T16:34:30.276Z,1.37
2022-11-23T16:36:59.179Z,2.07
2022-11-23T16:39:26.160Z,1.13
2022-11-23T16:41:52.720Z,0.87
2022-11-23T16:44:20.131Z,1.20
2022-11-23T16:46:47.942Z,0.97
2022-11-23T16:49:20.778Z,2.37
2022-11-23T16:51:56.236Z,0.80
2022-11-23T16:54:25.073Z,1.60
2022-11-23T16:56:52.545Z,1.20
2022-11-23T16:59:19.707Z,1.33
2022-11-23T17:01:52.482Z,0.90
2022-11-23T17:04:22.432Z,1.57
2022-11-23T17:06:49.567Z,1.87
2022-11-23T17:09:16.233Z,0.70
2022-11-23T17:11:46.864Z,0.93
2022-11-23T17:14:18.848Z,1.17
2022-11-23T17:16:46.851Z,1.60
2022-11-23T17:19:19.613Z,2.00
2022-11-23T17:21:46.969Z,1.43
2022-11-23T17:24:14.113Z,1.37
2022-11-23T17:26:44.838Z,1.40
2022-11-23T17:29:19.544Z,2.00
2022-11-23T17:31:47.583Z,1.53
2022-11-23T17:34:14.740Z,1.60
2022-11-23T17:36:46.825Z,2.30
2022-11-23T17:39:25.309Z,1.27
2022-11-23T17:41:52.393Z,1.30
2022-11-23T17:44:18.999Z,1.90
2022-11-23T17:46:47.305Z,1.47
2022-11-23T17:49:16.320Z,1.43
2022-11-23T17:51:43.395Z,2.00
2022-11-23T17:54:10.034Z,1.27
2022-11-23T17:56:37.026Z,2.13
2022-11-23T17:59:05.021Z,2.13
2022-11-23T18:01:31.684Z,2.30
2022-11-23T18:04:01.039Z,1.83
2022-11-23T18:06:29.502Z,2.20
2022-11-23T18:08:56.579Z,3.20
2022-11-23T18:11:23.658Z,2.90
2022-11-23T18:13:50.811Z,3.30
2022-11-23T18:16:19.558Z,2.20
2022-11-23T18:18:46.347Z,2.03
2022-11-23T18:21:14.582Z,2.47
2022-11-23T18:23:44.660Z,2.17
2022-11-23T18:26:16.667Z,1.93
2022-11-23T18:28:43.503Z,1.97
2022-11-23T18:31:10.407Z,2.93
2022-11-23T18:33:37.440Z,2.07
2022-11-23T18:36:05.801Z,1.60
2022-11-23T18:38:33.810Z,1.70
2022-11-23T18:41:00.888Z,1.83
2022-11-23T18:43:27.788Z,1.83
2022-11-23T18:45:54.591Z,2.27
2022-11-23T18:48:21.410Z,1.27
2022-11-23T18:50:48.598Z,1.90
2022-11-23T18:53:15.795Z,1.47
2022-11-23T18:55:42.353Z,2.70
2022-11-23T18:58:09.507Z,1.73
2022-11-23T19:00:36.652Z,1.73
2022-11-23T19:03:04.657Z,1.43
2022-11-23T19:05:34.147Z,1.90
2022-11-23T19:08:04.473Z,2.23
2022-11-23T19:10:36.300Z,1.87
2022-11-23T19:13:05.682Z,2.07
2022-11-23T19:15:33.484Z,1.93
2022-11-23T19:18:00.323Z,2.47
2022-11-23T19:20:28.402Z,1.77
2022-11-23T19:22:55.865Z,3.17
2022-11-23T19:25:22.548Z,2.27
2022-11-23T19:27:51.321Z,1.73
2022-11-23T19:30:18.238Z,3.07
2022-11-23T19:32:44.899Z,1.93
2022-11-23T19:35:11.622Z,2.10
2022-11-23T19:37:38.961Z,2.47
2022-11-23T19:40:06.435Z,2.27
2022-11-23T19:42:35.779Z,2.17
2022-11-23T19:45:03.722Z,2.10
2022-11-23T19:47:31.615Z,1.60
2022-11-23T19:49:58.931Z,1.43
2022-11-23T19:52:37.326Z,1.43
2022-11-23T19:55:12.395Z,2.27
2022-11-23T19:57:39.007Z,2.23
2022-11-23T20:00:06.208Z,3.00
2022-11-23T20:02:32.756Z,2.10
2022-11-23T20:04:59.409Z,2.30
2022-11-23T20:07:26.205Z,2.43
2022-11-23T20:09:53.487Z,2.00
2022-11-23T20:12:20.924Z,2.63
2022-11-23T20:14:47.525Z,1.93
2022-11-23T20:17:14.201Z,2.47
2022-11-23T20:19:40.746Z,2.00
2022-11-23T20:22:07.677Z,2.33
2022-11-23T20:24:35.525Z,2.47
2022-11-23T20:27:02.107Z,2.77
2022-11-23T20:29:28.653Z,2.43
2022-11-23T20:31:55.365Z,3.23
2022-11-23T20:34:26.164Z,2.80
2022-11-23T20:36:53.057Z,2.13
2022-11-23T20:39:19.815Z,3.13
2022-11-23T20:41:49.431Z,3.30
2022-11-23T20:44:16.107Z,2.40
2022-11-23T20:47:01.324Z,2.10
2022-11-23T20:49:30.409Z,2.50
2022-11-23T20:51:57.413Z,2.97
2022-11-23T20:54:23.987Z,3.10
2022-11-23T20:56:50.708Z,2.53
2022-11-23T20:59:17.439Z,2.53
2022-11-23T21:01:44.089Z,2.40
2022-11-23T21:04:11.102Z,1.80
2022-11-23T21:06:39.920Z,2.40
2022-11-23T21:09:09.107Z,2.27
2022-11-23T21:11:54.223Z,2.80
2022-11-23T21:14:23.261Z,2.93
2022-11-23T21:16:58.846Z,2.57
2022-11-23T21:19:33.613Z,2.63
2022-11-23T21:22:06.878Z,2.70
2022-11-23T21:24:42.459Z,2.27
2022-11-23T21:27:12.424Z,2.20
2022-11-23T21:29:39.300Z,1.90
2022-11-23T21:32:06.158Z,2.23
2022-11-23T21:34:33.150Z,3.30
2022-11-23T21:37:00.239Z,2.10
2022-11-23T21:39:27.126Z,2.03
2022-11-23T21:41:54.447Z,2.67
2022-11-23T21:44:22.807Z,2.77
2022-11-23T21:46:49.874Z,2.50
2022-11-23T21:49:17.004Z,2.13
2022-11-23T21:51:44.698Z,2.03
2022-11-23T21:54:14.362Z,2.87
2022-11-23T21:56:50.214Z,2.27
2022-11-23T21:59:16.858Z,2.63
2022-11-23T22:01:43.722Z,2.77
2022-11-23T22:04:12.909Z,2.20
2022-11-23T22:06:44.222Z,3.50
2022-11-23T22:09:12.004Z,2.80
2022-11-23T22:11:41.310Z,2.80
2022-11-23T22:14:11.443Z,2.33
2022-11-23T22:16:41.136Z,2.77
2022-11-23T22:19:14.562Z,2.83
2022-11-23T22:21:43.492Z,2.30
2022-11-23T22:24:19.929Z,2.23
2022-11-23T22:26:48.036Z,1.80
2022-11-23T22:29:15.352Z,2.13
2022-11-23T22:31:42.101Z,1.70
2022-11-23T22:34:11.685Z,2.30
2022-11-23T22:36:38.593Z,2.30
2022-11-23T22:39:07.299Z,2.53
2022-11-23T22:41:37.316Z,2.73
2022-11-23T22:44:09.645Z,2.47
2022-11-23T22:46:40.219Z,2.10
2022-11-23T22:49:07.595Z,2.23
2022-11-23T22:51:34.643Z,2.97
2022-11-23T22:54:06.393Z,2.20
2022-11-23T22:56:33.391Z,2.73
2022-11-23T22:59:00.486Z,2.27
2022-11-23T23:01:30.304Z,2.57
2022-11-23T23:04:00.670Z,2.90
2022-11-23T23:06:29.911Z,2.63
2022-11-23T23:08:59.430Z,2.53
2022-11-23T23:11:29.744Z,1.87
2022-11-23T23:13:59.347Z,2.93
2022-11-23T23:16:27.214Z,2.10
2022-11-23T23:18:59.640Z,2.77
2022-11-23T23:21:28.533Z,2.77
2022-11-23T23:23:58.608Z,2.37
2022-11-23T23:26:29.154Z,3.10
2022-11-23T23:29:00.330Z,2.70
2022-11-23T23:31:30.772Z,2.87
2022-11-23T23:34:02.656Z,2.30
2022-11-23T23:36:30.331Z,2.40
2022-11-23T23:38:57.901Z,2.20
2022-11-23T23:41:24.883Z,2.00
2022-11-23T23:43:54.232Z,1.90
2022-11-23T23:46:21.156Z,1.80
2022-11-23T23:48:50.984Z,1.93
2022-11-23T23:51:23.285Z,1.53
2022-11-23T23:53:51.578Z,2.13
2022-11-23T23:56:28.845Z,2.07
2022-11-23T23:59:03.278Z,1.60
